sensor_id;sensor_type;location;lat;lon;timestamp;pressure;altitude;pressure_sealevel;temperature;humidity
13407;BME280;6774;48.208;10.766;2023-07-31T00:00:56;95706.59;;;15.63;84.50
13407;BME280;6774;48.208;10.766;2023-07-31T00:03:25;95700.81;;;15.67;84.67
13407;BME280;6774;48.208;10.766;2023-07-31T00:05:54;95699.75;;;15.74;84.34
13407;BME280;6774;48.208;10.766;2023-07-31T00:08:22;95689.34;;;15.73;84.35
13407;BME280;6774;48.208;10.766;2023-07-31T00:10:52;95692.59;;;15.75;84.60
13407;BME280;6774;48.208;10.766;2023-07-31T00:13:21;95687.88;;;15.77;84.69
13407;BME280;6774;48.208;10.766;2023-07-31T00:15:50;95689.06;;;15.81;84.85
13407;BME280;6774;48.208;10.766;2023-07-31T00:18:18;95690.91;;;15.80;84.57
13407;BME280;6774;48.208;10.766;2023-07-31T00:20:47;95697.84;;;15.81;84.50
13407;BME280;6774;48.208;10.766;2023-07-31T00:23:15;95697.81;;;15.88;84.16
13407;BME280;6774;48.208;10.766;2023-07-31T00:25:44;95683.47;;;15.89;84.19
13407;BME280;6774;48.208;10.766;2023-07-31T00:28:13;95685.50;;;15.93;83.88
13407;BME280;6774;48.208;10.766;2023-07-31T00:30:42;95686.13;;;15.89;83.99
13407;BME280;6774;48.208;10.766;2023-07-31T00:33:11;95683.47;;;15.89;81.59
13407;BME280;6774;48.208;10.766;2023-07-31T00:35:39;95673.78;;;15.70;81.85
13407;BME280;6774;48.208;10.766;2023-07-31T00:38:08;95680.81;;;15.57;82.25
13407;BME280;6774;48.208;10.766;2023-07-31T00:40:39;95676.22;;;15.33;83.71
13407;BME280;6774;48.208;10.766;2023-07-31T00:43:08;95676.47;;;15.25;84.45
13407;BME280;6774;48.208;10.766;2023-07-31T00:45:38;95674.88;;;15.17;85.09
13407;BME280;6774;48.208;10.766;2023-07-31T00:48:06;95678.19;;;15.13;85.71
13407;BME280;6774;48.208;10.766;2023-07-31T00:50:35;95676.91;;;15.22;84.88
13407;BME280;6774;48.208;10.766;2023-07-31T00:53:03;95678.50;;;15.29;84.31
13407;BME280;6774;48.208;10.766;2023-07-31T00:55:32;95684.19;;;15.33;84.53
13407;BME280;6774;48.208;10.766;2023-07-31T00:58:00;95682.72;;;15.44;85.33
13407;BME280;6774;48.208;10.766;2023-07-31T01:00:28;95683.28;;;15.52;85.39
13407;BME280;6774;48.208;10.766;2023-07-31T01:02:58;95684.06;;;15.59;85.42
13407;BME280;6774;48.208;10.766;2023-07-31T01:05:33;95672.59;;;15.66;85.51
13407;BME280;6774;48.208;10.766;2023-07-31T01:08:09;95679.09;;;15.70;85.25
13407;BME280;6774;48.208;10.766;2023-07-31T01:10:48;95663.31;;;15.75;85.32
13407;BME280;6774;48.208;10.766;2023-07-31T01:13:18;95661.88;;;15.72;86.00
13407;BME280;6774;48.208;10.766;2023-07-31T01:15:47;95661.06;;;15.72;85.97
13407;BME280;6774;48.208;10.766;2023-07-31T01:18:17;95655.16;;;15.70;86.61
13407;BME280;6774;48.208;10.766;2023-07-31T01:20:53;95665.22;;;15.68;86.89
13407;BME280;6774;48.208;10.766;2023-07-31T01:23:41;95657.22;;;15.68;87.08
13407;BME280;6774;48.208;10.766;2023-07-31T01:26:19;95661.47;;;15.75;87.01
13407;BME280;6774;48.208;10.766;2023-07-31T01:28:54;95653.97;;;15.66;87.60
13407;BME280;6774;48.208;10.766;2023-07-31T01:31:24;95652.50;;;15.70;87.83
13407;BME280;6774;48.208;10.766;2023-07-31T01:33:58;95655.72;;;15.78;87.80
13407;BME280;6774;48.208;10.766;2023-07-31T01:36:28;95653.09;;;15.72;88.40
13407;BME280;6774;48.208;10.766;2023-07-31T01:38:59;95658.59;;;15.77;88.56
13407;BME280;6774;48.208;10.766;2023-07-31T01:41:29;95647.72;;;15.78;88.32
13407;BME280;6774;48.208;10.766;2023-07-31T01:43:57;95652.25;;;15.78;88.23
13407;BME280;6774;48.208;10.766;2023-07-31T01:46:26;95650.28;;;15.67;88.29
13407;BME280;6774;48.208;10.766;2023-07-31T01:48:55;95644.44;;;15.83;87.63
13407;BME280;6774;48.208;10.766;2023-07-31T01:51:24;95634.38;;;15.85;88.01
13407;BME280;6774;48.208;10.766;2023-07-31T01:53:52;95647.84;;;15.90;87.76
13407;BME280;6774;48.208;10.766;2023-07-31T01:56:21;95638.84;;;15.91;87.69
13407;BME280;6774;48.208;10.766;2023-07-31T01:58:50;95644.59;;;15.88;87.42
13407;BME280;6774;48.208;10.766;2023-07-31T02:01:19;95649.88;;;15.95;87.57
13407;BME280;6774;48.208;10.766;2023-07-31T02:03:47;95646.22;;;15.89;87.33
13407;BME280;6774;48.208;10.766;2023-07-31T02:06:16;95644.16;;;15.91;87.11
13407;BME280;6774;48.208;10.766;2023-07-31T02:08:44;95625.69;;;15.96;87.01
13407;BME280;6774;48.208;10.766;2023-07-31T02:11:12;95629.38;;;15.95;86.92
13407;BME280;6774;48.208;10.766;2023-07-31T02:13:41;95625.69;;;15.96;86.83
13407;BME280;6774;48.208;10.766;2023-07-31T02:16:11;95625.47;;;15.98;86.57
13407;BME280;6774;48.208;10.766;2023-07-31T02:18:40;95620.59;;;15.95;86.28
13407;BME280;6774;48.208;10.766;2023-07-31T02:21:08;95626.13;;;15.93;86.10
13407;BME280;6774;48.208;10.766;2023-07-31T02:23:37;95613.47;;;15.88;86.34
13407;BME280;6774;48.208;10.766;2023-07-31T02:26:05;95608.59;;;15.85;86.54
13407;BME280;6774;48.208;10.766;2023-07-31T02:28:34;95607.78;;;15.85;86.27
13407;BME280;6774;48.208;10.766;2023-07-31T02:31:03;95607.78;;;15.85;86.01
13407;BME280;6774;48.208;10.766;2023-07-31T02:33:35;95604.03;;;15.92;85.26
13407;BME280;6774;48.208;10.766;2023-07-31T02:36:04;95598.94;;;15.91;84.97
13407;BME280;6774;48.208;10.766;2023-07-31T02:38:32;95597.28;;;15.90;85.06
13407;BME280;6774;48.208;10.766;2023-07-31T02:41:00;95594.25;;;15.86;85.05
13407;BME280;6774;48.208;10.766;2023-07-31T02:43:28;95597.72;;;15.87;84.95
13407;BME280;6774;48.208;10.766;2023-07-31T02:45:57;95596.09;;;15.86;84.82
13407;BME280;6774;48.208;10.766;2023-07-31T02:48:26;95593.56;;;15.73;85.13
13407;BME280;6774;48.208;10.766;2023-07-31T02:50:56;95593.13;;;15.76;84.83
13407;BME280;6774;48.208;10.766;2023-07-31T02:53:24;95607.13;;;15.64;84.12
13407;BME280;6774;48.208;10.766;2023-07-31T02:55:53;95595.69;;;15.26;83.98
13407;BME280;6774;48.208;10.766;2023-07-31T02:58:21;95599.56;;;15.30;83.90
13407;BME280;6774;48.208;10.766;2023-07-31T03:00:50;95602.94;;;15.12;84.77
13407;BME280;6774;48.208;10.766;2023-07-31T03:03:18;95603.00;;;14.99;86.48
13407;BME280;6774;48.208;10.766;2023-07-31T03:05:48;95595.91;;;14.86;86.69
13407;BME280;6774;48.208;10.766;2023-07-31T03:08:17;95596.91;;;14.92;86.23
13407;BME280;6774;48.208;10.766;2023-07-31T03:10:46;95605.50;;;14.94;86.46
13407;BME280;6774;48.208;10.766;2023-07-31T03:13:15;95603.16;;;14.72;88.12
13407;BME280;6774;48.208;10.766;2023-07-31T03:15:43;95601.50;;;14.71;88.30
13407;BME280;6774;48.208;10.766;2023-07-31T03:18:11;95599.47;;;14.67;88.32
13407;BME280;6774;48.208;10.766;2023-07-31T03:20:42;95594.00;;;14.55;88.55
13407;BME280;6774;48.208;10.766;2023-07-31T03:23:10;95590.94;;;14.51;89.04
13407;BME280;6774;48.208;10.766;2023-07-31T03:25:56;95589.69;;;14.61;88.45
13407;BME280;6774;48.208;10.766;2023-07-31T03:28:27;95592.31;;;14.67;87.91
13407;BME280;6774;48.208;10.766;2023-07-31T03:30:56;95592.53;;;14.66;88.17
13407;BME280;6774;48.208;10.766;2023-07-31T03:33:24;95609.31;;;14.60;88.49
13407;BME280;6774;48.208;10.766;2023-07-31T03:35:53;95605.22;;;14.64;88.23
13407;BME280;6774;48.208;10.766;2023-07-31T03:38:21;95601.75;;;14.63;88.18
13407;BME280;6774;48.208;10.766;2023-07-31T03:40:51;95603.63;;;14.49;88.39
13407;BME280;6774;48.208;10.766;2023-07-31T03:43:19;95598.53;;;14.48;88.24
13407;BME280;6774;48.208;10.766;2023-07-31T03:45:47;95603.63;;;14.49;87.89
13407;BME280;6774;48.208;10.766;2023-07-31T03:48:15;95601.56;;;14.51;87.67
13407;BME280;6774;48.208;10.766;2023-07-31T03:50:44;95595.84;;;14.41;87.77
13407;BME280;6774;48.208;10.766;2023-07-31T03:53:12;95594.84;;;14.49;87.62
13407;BME280;6774;48.208;10.766;2023-07-31T03:55:40;95595.66;;;14.49;87.65
13407;BME280;6774;48.208;10.766;2023-07-31T03:58:09;95594.19;;;14.54;87.93
13407;BME280;6774;48.208;10.766;2023-07-31T04:00:37;95593.19;;;14.55;87.82
13407;BME280;6774;48.208;10.766;2023-07-31T04:03:05;95600.53;;;14.52;87.76
13407;BME280;6774;48.208;10.766;2023-07-31T04:05:32;95600.13;;;14.42;87.87
13407;BME280;6774;48.208;10.766;2023-07-31T04:08:00;95596.69;;;14.35;87.68
13407;BME280;6774;48.208;10.766;2023-07-31T04:10:28;95598.34;;;14.30;87.41
13407;BME280;6774;48.208;10.766;2023-07-31T04:12:57;95595.94;;;14.08;87.57
13407;BME280;6774;48.208;10.766;2023-07-31T04:15:26;95591.41;;;14.22;87.64
13407;BME280;6774;48.208;10.766;2023-07-31T04:17:54;95592.22;;;14.29;87.38
13407;BME280;6774;48.208;10.766;2023-07-31T04:20:22;95594.66;;;14.37;87.09
13407;BME280;6774;48.208;10.766;2023-07-31T04:22:50;95591.34;;;14.42;87.14
13407;BME280;6774;48.208;10.766;2023-07-31T04:25:18;95582.97;;;14.51;87.00
13407;BME280;6774;48.208;10.766;2023-07-31T04:27:46;95577.00;;;14.63;87.24
13407;BME280;6774;48.208;10.766;2023-07-31T04:30:16;95574.41;;;14.94;87.12
13407;BME280;6774;48.208;10.766;2023-07-31T04:32:46;95569.78;;;15.15;86.64
13407;BME280;6774;48.208;10.766;2023-07-31T04:35:14;95582.38;;;15.26;86.37
13407;BME280;6774;48.208;10.766;2023-07-31T04:37:41;95579.44;;;15.41;86.20
13407;BME280;6774;48.208;10.766;2023-07-31T04:40:10;95580.97;;;15.55;85.56
13407;BME280;6774;48.208;10.766;2023-07-31T04:42:38;95572.28;;;15.73;85.19
13407;BME280;6774;48.208;10.766;2023-07-31T04:45:07;95574.59;;;15.87;84.85
13407;BME280;6774;48.208;10.766;2023-07-31T04:47:35;95578.81;;;15.95;84.45
13407;BME280;6774;48.208;10.766;2023-07-31T04:50:05;95577.28;;;16.06;84.46
13407;BME280;6774;48.208;10.766;2023-07-31T04:52:33;95581.34;;;16.08;84.38
13407;BME280;6774;48.208;10.766;2023-07-31T04:55:00;95584.91;;;16.20;84.12
13407;BME280;6774;48.208;10.766;2023-07-31T04:57:29;95587.00;;;16.18;84.08
13407;BME280;6774;48.208;10.766;2023-07-31T04:59:57;95584.00;;;16.27;83.72
13407;BME280;6774;48.208;10.766;2023-07-31T05:02:24;95579.72;;;16.26;83.69
13407;BME280;6774;48.208;10.766;2023-07-31T05:04:52;95581.16;;;16.28;83.56
13407;BME280;6774;48.208;10.766;2023-07-31T05:07:21;95580.94;;;16.30;83.60
13407;BME280;6774;48.208;10.766;2023-07-31T05:09:49;95584.84;;;16.27;83.67
13407;BME280;6774;48.208;10.766;2023-07-31T05:12:17;95581.28;;;16.33;83.88
13407;BME280;6774;48.208;10.766;2023-07-31T05:14:44;95582.41;;;16.44;83.86
13407;BME280;6774;48.208;10.766;2023-07-31T05:17:12;95583.00;;;16.46;84.56
13407;BME280;6774;48.208;10.766;2023-07-31T05:19:40;95584.63;;;16.47;84.34
13407;BME280;6774;48.208;10.766;2023-07-31T05:22:08;95584.94;;;16.57;84.39
13407;BME280;6774;48.208;10.766;2023-07-31T05:24:37;95599.19;;;16.63;84.43
13407;BME280;6774;48.208;10.766;2023-07-31T05:27:05;95594.63;;;16.70;84.17
13407;BME280;6774;48.208;10.766;2023-07-31T05:29:33;95589.06;;;16.90;83.75
13407;BME280;6774;48.208;10.766;2023-07-31T05:32:01;95589.06;;;16.90;84.02
13407;BME280;6774;48.208;10.766;2023-07-31T05:34:29;95594.22;;;17.03;84.02
13407;BME280;6774;48.208;10.766;2023-07-31T05:36:57;95598.75;;;17.02;84.48
13407;BME280;6774;48.208;10.766;2023-07-31T05:39:24;95604.34;;;17.13;84.88
13407;BME280;6774;48.208;10.766;2023-07-31T05:41:53;95594.06;;;16.98;85.25
13407;BME280;6774;48.208;10.766;2023-07-31T05:44:21;95599.53;;;17.21;84.87
13407;BME280;6774;48.208;10.766;2023-07-31T05:46:49;95598.47;;;17.22;85.33
13407;BME280;6774;48.208;10.766;2023-07-31T05:49:17;95591.78;;;17.31;85.08
13407;BME280;6774;48.208;10.766;2023-07-31T05:51:45;95595.25;;;17.32;84.52
13407;BME280;6774;48.208;10.766;2023-07-31T05:54:13;95596.66;;;17.46;84.48
13407;BME280;6774;48.208;10.766;2023-07-31T05:56:40;95600.81;;;17.30;84.09
13407;BME280;6774;48.208;10.766;2023-07-31T05:59:11;95590.88;;;17.38;84.65
13407;BME280;6774;48.208;10.766;2023-07-31T06:01:39;95593.75;;;17.36;85.22
13407;BME280;6774;48.208;10.766;2023-07-31T06:04:07;95588.81;;;17.63;84.47
13407;BME280;6774;48.208;10.766;2023-07-31T06:06:35;95592.81;;;17.72;83.90
13407;BME280;6774;48.208;10.766;2023-07-31T06:09:04;95591.91;;;17.78;83.40
13407;BME280;6774;48.208;10.766;2023-07-31T06:11:31;95584.81;;;17.72;83.49
13407;BME280;6774;48.208;10.766;2023-07-31T06:13:59;95585.91;;;17.95;82.51
13407;BME280;6774;48.208;10.766;2023-07-31T06:16:28;95573.56;;;18.17;81.61
13407;BME280;6774;48.208;10.766;2023-07-31T06:18:56;95578.00;;;18.23;80.90
13407;BME280;6774;48.208;10.766;2023-07-31T06:21:24;95583.22;;;18.18;80.29
13407;BME280;6774;48.208;10.766;2023-07-31T06:23:52;95572.88;;;18.33;80.12
13407;BME280;6774;48.208;10.766;2023-07-31T06:26:20;95565.63;;;18.45;79.75
13407;BME280;6774;48.208;10.766;2023-07-31T06:28:47;95570.97;;;18.45;80.17
13407;BME280;6774;48.208;10.766;2023-07-31T06:31:15;95575.72;;;18.55;80.06
13407;BME280;6774;48.208;10.766;2023-07-31T06:33:48;95575.16;;;18.65;80.82
13407;BME280;6774;48.208;10.766;2023-07-31T06:36:16;95571.19;;;18.79;79.75
13407;BME280;6774;48.208;10.766;2023-07-31T06:38:43;95569.56;;;18.78;79.33
13407;BME280;6774;48.208;10.766;2023-07-31T06:41:11;95565.28;;;19.06;78.69
13407;BME280;6774;48.208;10.766;2023-07-31T06:43:39;95564.16;;;19.18;77.77
13407;BME280;6774;48.208;10.766;2023-07-31T06:46:07;95554.94;;;19.26;77.04
13407;BME280;6774;48.208;10.766;2023-07-31T06:51:09;95562.34;;;19.52;75.04
13407;BME280;6774;48.208;10.766;2023-07-31T06:53:37;95560.16;;;19.49;74.53
13407;BME280;6774;48.208;10.766;2023-07-31T06:56:05;95567.84;;;19.57;74.37
13407;BME280;6774;48.208;10.766;2023-07-31T06:58:32;95573.38;;;19.11;75.21
13407;BME280;6774;48.208;10.766;2023-07-31T07:01:00;95581.47;;;19.44;74.33
13407;BME280;6774;48.208;10.766;2023-07-31T07:03:28;95574.13;;;19.51;74.79
13407;BME280;6774;48.208;10.766;2023-07-31T07:05:57;95572.00;;;19.53;75.32
13407;BME280;6774;48.208;10.766;2023-07-31T07:08:26;95570.19;;;19.87;73.52
13407;BME280;6774;48.208;10.766;2023-07-31T07:10:54;95563.91;;;20.15;72.01
13407;BME280;6774;48.208;10.766;2023-07-31T07:13:22;95561.00;;;19.83;72.12
13407;BME280;6774;48.208;10.766;2023-07-31T07:15:50;95569.78;;;20.12;71.53
13407;BME280;6774;48.208;10.766;2023-07-31T07:18:18;95564.56;;;20.23;70.33
13407;BME280;6774;48.208;10.766;2023-07-31T07:20:49;95554.53;;;20.35;70.60
13407;BME280;6774;48.208;10.766;2023-07-31T07:23:17;95558.81;;;19.97;70.96
13407;BME280;6774;48.208;10.766;2023-07-31T07:25:47;95550.09;;;20.24;68.96
13407;BME280;6774;48.208;10.766;2023-07-31T07:28:15;95549.75;;;20.20;70.15
13407;BME280;6774;48.208;10.766;2023-07-31T07:30:43;95552.59;;;20.69;67.37
13407;BME280;6774;48.208;10.766;2023-07-31T07:33:10;95545.28;;;20.64;65.98
13407;BME280;6774;48.208;10.766;2023-07-31T07:35:39;95550.66;;;20.64;63.81
13407;BME280;6774;48.208;10.766;2023-07-31T07:38:06;95544.88;;;20.34;66.80
13407;BME280;6774;48.208;10.766;2023-07-31T07:40:38;95549.00;;;20.03;66.68
13407;BME280;6774;48.208;10.766;2023-07-31T07:43:07;95547.28;;;20.13;68.36
13407;BME280;6774;48.208;10.766;2023-07-31T07:45:35;95545.94;;;19.60;67.16
13407;BME280;6774;48.208;10.766;2023-07-31T07:48:03;95544.78;;;19.28;68.10
13407;BME280;6774;48.208;10.766;2023-07-31T07:50:31;95544.44;;;19.53;68.44
13407;BME280;6774;48.208;10.766;2023-07-31T07:52:59;95544.13;;;19.49;68.16
13407;BME280;6774;48.208;10.766;2023-07-31T07:55:27;95539.38;;;19.23;68.75
13407;BME280;6774;48.208;10.766;2023-07-31T07:57:55;95544.94;;;19.04;69.03
13407;BME280;6774;48.208;10.766;2023-07-31T08:00:24;95542.25;;;18.64;68.39
13407;BME280;6774;48.208;10.766;2023-07-31T08:02:51;95546.53;;;18.77;69.37
13407;BME280;6774;48.208;10.766;2023-07-31T08:05:19;95545.78;;;18.93;69.93
13407;BME280;6774;48.208;10.766;2023-07-31T08:07:47;95538.13;;;19.14;70.99
13407;BME280;6774;48.208;10.766;2023-07-31T08:10:14;95541.09;;;19.00;69.32
13407;BME280;6774;48.208;10.766;2023-07-31T08:12:42;95535.94;;;19.11;69.20
13407;BME280;6774;48.208;10.766;2023-07-31T08:15:10;95539.00;;;19.02;69.93
13407;BME280;6774;48.208;10.766;2023-07-31T08:17:39;95546.94;;;18.97;69.41
13407;BME280;6774;48.208;10.766;2023-07-31T08:20:08;95544.38;;;19.02;69.65
13407;BME280;6774;48.208;10.766;2023-07-31T08:22:36;95551.97;;;19.11;68.83
13407;BME280;6774;48.208;10.766;2023-07-31T08:25:04;95550.97;;;19.45;68.90
13407;BME280;6774;48.208;10.766;2023-07-31T08:27:33;95546.84;;;19.54;68.64
13407;BME280;6774;48.208;10.766;2023-07-31T08:30:00;95557.25;;;19.51;68.65
13407;BME280;6774;48.208;10.766;2023-07-31T08:32:28;95548.00;;;19.92;68.47
13407;BME280;6774;48.208;10.766;2023-07-31T08:34:57;95548.28;;;20.46;66.92
13407;BME280;6774;48.208;10.766;2023-07-31T08:37:25;95540.06;;;20.53;67.21
13407;BME280;6774;48.208;10.766;2023-07-31T08:39:53;95553.06;;;20.44;67.95
13407;BME280;6774;48.208;10.766;2023-07-31T08:42:21;95545.31;;;21.13;67.65
13407;BME280;6774;48.208;10.766;2023-07-31T08:44:49;95548.09;;;21.23;66.16
13407;BME280;6774;48.208;10.766;2023-07-31T08:47:19;95538.59;;;21.38;63.94
13407;BME280;6774;48.208;10.766;2023-07-31T08:49:47;95546.75;;;20.99;62.97
13407;BME280;6774;48.208;10.766;2023-07-31T08:52:17;95539.66;;;21.37;64.50
13407;BME280;6774;48.208;10.766;2023-07-31T08:54:44;95537.25;;;20.26;65.09
13407;BME280;6774;48.208;10.766;2023-07-31T08:57:13;95532.69;;;20.43;68.01
13407;BME280;6774;48.208;10.766;2023-07-31T08:59:41;95528.69;;;20.45;64.29
13407;BME280;6774;48.208;10.766;2023-07-31T09:02:11;95527.44;;;20.97;67.38
13407;BME280;6774;48.208;10.766;2023-07-31T09:04:41;95518.31;;;21.25;66.28
13407;BME280;6774;48.208;10.766;2023-07-31T09:07:09;95523.06;;;21.18;65.23
13407;BME280;6774;48.208;10.766;2023-07-31T09:09:41;95511.44;;;21.07;65.28
13407;BME280;6774;48.208;10.766;2023-07-31T09:12:08;95502.28;;;20.37;64.76
13407;BME280;6774;48.208;10.766;2023-07-31T09:14:37;95500.53;;;20.43;65.06
13407;BME280;6774;48.208;10.766;2023-07-31T09:17:06;95514.41;;;20.84;64.13
13407;BME280;6774;48.208;10.766;2023-07-31T09:19:34;95509.38;;;20.65;63.52
13407;BME280;6774;48.208;10.766;2023-07-31T09:22:04;95513.28;;;21.28;63.48
13407;BME280;6774;48.208;10.766;2023-07-31T09:24:33;95505.66;;;21.84;62.13
13407;BME280;6774;48.208;10.766;2023-07-31T09:27:03;95508.06;;;22.18;62.06
13407;BME280;6774;48.208;10.766;2023-07-31T09:29:31;95504.50;;;21.70;60.89
13407;BME280;6774;48.208;10.766;2023-07-31T09:31:59;95506.88;;;21.67;61.46
13407;BME280;6774;48.208;10.766;2023-07-31T09:34:30;95506.03;;;21.61;62.43
13407;BME280;6774;48.208;10.766;2023-07-31T09:37:04;95503.44;;;21.12;62.59
13407;BME280;6774;48.208;10.766;2023-07-31T09:39:32;95502.84;;;21.32;62.90
13407;BME280;6774;48.208;10.766;2023-07-31T09:42:13;95484.09;;;21.37;62.46
13407;BME280;6774;48.208;10.766;2023-07-31T09:44:41;95488.22;;;22.29;63.52
13407;BME280;6774;48.208;10.766;2023-07-31T09:47:21;95476.00;;;22.64;61.09
13407;BME280;6774;48.208;10.766;2023-07-31T09:49:50;95462.72;;;22.32;61.16
13407;BME280;6774;48.208;10.766;2023-07-31T09:52:17;95467.63;;;21.98;62.21
13407;BME280;6774;48.208;10.766;2023-07-31T09:54:45;95457.69;;;22.56;60.86
13407;BME280;6774;48.208;10.766;2023-07-31T09:57:16;95466.22;;;22.37;62.36
13407;BME280;6774;48.208;10.766;2023-07-31T09:59:47;95455.44;;;23.15;59.94
13407;BME280;6774;48.208;10.766;2023-07-31T10:02:21;95446.56;;;23.45;60.43
13407;BME280;6774;48.208;10.766;2023-07-31T10:04:50;95453.88;;;22.41;61.11
13407;BME280;6774;48.208;10.766;2023-07-31T10:07:19;95449.13;;;21.59;61.27
13407;BME280;6774;48.208;10.766;2023-07-31T10:09:48;95441.75;;;21.86;63.39
13407;BME280;6774;48.208;10.766;2023-07-31T10:12:19;95433.50;;;21.56;62.88
13407;BME280;6774;48.208;10.766;2023-07-31T10:14:50;95451.38;;;21.40;63.92
13407;BME280;6774;48.208;10.766;2023-07-31T10:17:19;95440.41;;;21.47;63.17
13407;BME280;6774;48.208;10.766;2023-07-31T10:19:49;95429.50;;;22.06;62.57
13407;BME280;6774;48.208;10.766;2023-07-31T10:22:18;95425.47;;;22.81;62.79
13407;BME280;6774;48.208;10.766;2023-07-31T10:24:46;95444.25;;;22.51;60.63
13407;BME280;6774;48.208;10.766;2023-07-31T10:27:14;95438.13;;;22.81;62.39
13407;BME280;6774;48.208;10.766;2023-07-31T10:29:44;95446.56;;;23.50;61.84
13407;BME280;6774;48.208;10.766;2023-07-31T10:32:15;95438.41;;;24.01;58.21
13407;BME280;6774;48.208;10.766;2023-07-31T10:34:45;95436.88;;;23.70;60.60
13407;BME280;6774;48.208;10.766;2023-07-31T10:37:20;95434.97;;;23.30;60.83
13407;BME280;6774;48.208;10.766;2023-07-31T10:39:56;95431.22;;;23.71;60.95
13407;BME280;6774;48.208;10.766;2023-07-31T10:42:30;95436.50;;;22.80;60.68
13407;BME280;6774;48.208;10.766;2023-07-31T10:45:01;95418.53;;;23.67;59.82
13407;BME280;6774;48.208;10.766;2023-07-31T10:47:29;95420.63;;;23.95;58.48
13407;BME280;6774;48.208;10.766;2023-07-31T10:50:16;95407.78;;;22.95;58.92
13407;BME280;6774;48.208;10.766;2023-07-31T10:52:46;95416.66;;;22.91;60.46
13407;BME280;6774;48.208;10.766;2023-07-31T10:55:23;95403.47;;;23.35;60.25
13407;BME280;6774;48.208;10.766;2023-07-31T10:57:51;95397.56;;;23.18;61.74
13407;BME280;6774;48.208;10.766;2023-07-31T11:00:24;95401.84;;;23.04;59.75
13407;BME280;6774;48.208;10.766;2023-07-31T11:03:00;95404.00;;;22.86;60.67
13407;BME280;6774;48.208;10.766;2023-07-31T11:05:46;95393.50;;;23.31;61.02
13407;BME280;6774;48.208;10.766;2023-07-31T11:08:16;95410.47;;;23.46;60.23
13407;BME280;6774;48.208;10.766;2023-07-31T11:10:47;95398.88;;;23.71;59.03
13407;BME280;6774;48.208;10.766;2023-07-31T11:13:15;95393.72;;;23.85;57.12
13407;BME280;6774;48.208;10.766;2023-07-31T11:15:44;95384.69;;;24.20;58.92
13407;BME280;6774;48.208;10.766;2023-07-31T11:18:12;95373.25;;;24.54;57.99
13407;BME280;6774;48.208;10.766;2023-07-31T11:20:40;95377.56;;;23.75;57.36
13407;BME280;6774;48.208;10.766;2023-07-31T11:23:09;95366.56;;;23.71;57.60
13407;BME280;6774;48.208;10.766;2023-07-31T11:25:38;95372.53;;;23.17;58.68
13407;BME280;6774;48.208;10.766;2023-07-31T11:28:09;95357.44;;;23.11;59.84
13407;BME280;6774;48.208;10.766;2023-07-31T11:30:37;95360.13;;;23.26;59.79
13407;BME280;6774;48.208;10.766;2023-07-31T11:33:09;95355.50;;;23.47;59.57
13407;BME280;6774;48.208;10.766;2023-07-31T11:35:42;95353.16;;;23.05;58.30
13407;BME280;6774;48.208;10.766;2023-07-31T11:38:11;95346.94;;;23.35;58.26
13407;BME280;6774;48.208;10.766;2023-07-31T11:40:43;95346.44;;;22.97;58.48
13407;BME280;6774;48.208;10.766;2023-07-31T11:43:11;95349.63;;;23.10;57.41
13407;BME280;6774;48.208;10.766;2023-07-31T11:45:45;95361.44;;;22.68;57.70
13407;BME280;6774;48.208;10.766;2023-07-31T11:48:22;95342.38;;;23.10;58.50
13407;BME280;6774;48.208;10.766;2023-07-31T11:50:51;95341.31;;;23.06;59.81
13407;BME280;6774;48.208;10.766;2023-07-31T11:53:26;95335.00;;;23.77;59.73
13407;BME280;6774;48.208;10.766;2023-07-31T11:55:57;95344.78;;;23.27;59.69
13407;BME280;6774;48.208;10.766;2023-07-31T11:58:26;95332.34;;;23.67;59.13
13407;BME280;6774;48.208;10.766;2023-07-31T12:00:56;95338.31;;;23.33;58.61
13407;BME280;6774;48.208;10.766;2023-07-31T12:03:26;95333.63;;;23.84;60.33
13407;BME280;6774;48.208;10.766;2023-07-31T12:05:54;95338.16;;;23.94;58.63
13407;BME280;6774;48.208;10.766;2023-07-31T12:08:23;95327.56;;;24.18;56.64
13407;BME280;6774;48.208;10.766;2023-07-31T12:10:52;95327.44;;;23.84;57.33
13407;BME280;6774;48.208;10.766;2023-07-31T12:13:22;95327.75;;;23.77;58.42
13407;BME280;6774;48.208;10.766;2023-07-31T12:15:54;95337.19;;;23.65;59.37
13407;BME280;6774;48.208;10.766;2023-07-31T12:18:24;95323.72;;;23.70;58.33
13407;BME280;6774;48.208;10.766;2023-07-31T12:20:56;95326.25;;;24.10;57.36
13407;BME280;6774;48.208;10.766;2023-07-31T12:23:26;95322.38;;;24.27;57.60
13407;BME280;6774;48.208;10.766;2023-07-31T12:26:02;95327.69;;;23.88;57.43
13407;BME280;6774;48.208;10.766;2023-07-31T12:28:35;95315.97;;;24.18;59.05
13407;BME280;6774;48.208;10.766;2023-07-31T12:31:04;95310.00;;;24.21;56.55
13407;BME280;6774;48.208;10.766;2023-07-31T12:33:33;95301.72;;;24.61;56.85
13407;BME280;6774;48.208;10.766;2023-07-31T12:36:04;95307.38;;;24.94;56.05
13407;BME280;6774;48.208;10.766;2023-07-31T12:38:33;95302.44;;;24.33;57.88
13407;BME280;6774;48.208;10.766;2023-07-31T12:41:01;95300.78;;;24.76;55.86
13407;BME280;6774;48.208;10.766;2023-07-31T12:43:28;95281.81;;;24.52;56.82
13407;BME280;6774;48.208;10.766;2023-07-31T12:45:56;95290.31;;;24.70;56.86
13407;BME280;6774;48.208;10.766;2023-07-31T12:48:24;95283.22;;;25.13;57.04
13407;BME280;6774;48.208;10.766;2023-07-31T12:50:52;95279.50;;;25.33;55.43
13407;BME280;6774;48.208;10.766;2023-07-31T12:53:21;95285.09;;;25.12;54.93
13407;BME280;6774;48.208;10.766;2023-07-31T12:55:49;95276.28;;;24.67;56.06
13407;BME280;6774;48.208;10.766;2023-07-31T12:58:17;95262.78;;;24.28;55.86
13407;BME280;6774;48.208;10.766;2023-07-31T13:00:45;95277.66;;;24.21;57.16
13407;BME280;6774;48.208;10.766;2023-07-31T13:03:13;95271.81;;;24.08;56.26
13407;BME280;6774;48.208;10.766;2023-07-31T13:05:41;95268.41;;;24.42;56.16
13407;BME280;6774;48.208;10.766;2023-07-31T13:08:09;95257.28;;;24.49;55.17
13407;BME280;6774;48.208;10.766;2023-07-31T13:10:39;95251.50;;;24.21;54.63
13407;BME280;6774;48.208;10.766;2023-07-31T13:13:08;95247.41;;;24.29;54.60